Aviation Digital Data Service (ADDS)

Output produced by METARs form (0349 UTC 19 July 2018)
found at http://www.aviationweather.gov/adds/metars/
 
EPGD 190330Z 28006KT 7000 NSC 18/17 Q1010
TAF EPGD 182330Z 1900/1924 29008KT 9999 SCT025 
     PROB40 1900/1907 3000 BR BKN003 
     BECMG 1910/1912 01010KT 
     PROB40 
     TEMPO 1910/1916 SHRA BKN025CB 
     BECMG 1914/1917 29008KT